sensor_id;sensor_type;location;lat;lon;timestamp;P1;durP1;ratioP1;P2;durP2;ratioP2
7199;SDS011;3641;49.082;8.200;2023-11-18T00:00:51;14.27;;;7.63;;
7199;SDS011;3641;49.082;8.200;2023-11-18T00:03:18;13.63;;;7.45;;
7199;SDS011;3641;49.082;8.200;2023-11-18T00:05:45;11.98;;;6.72;;
7199;SDS011;3641;49.082;8.200;2023-11-18T00:08:12;15.13;;;7.65;;
7199;SDS011;3641;49.082;8.200;2023-11-18T00:10:39;12.48;;;6.85;;
7199;SDS011;3641;49.082;8.200;2023-11-18T00:13:05;11.48;;;7.03;;
7199;SDS011;3641;49.082;8.200;2023-11-18T00:15:31;13.52;;;7.15;;
7199;SDS011;3641;49.082;8.200;2023-11-18T00:17:59;12.23;;;6.97;;
7199;SDS011;3641;49.082;8.200;2023-11-18T00:20:26;12.93;;;7.95;;
7199;SDS011;3641;49.082;8.200;2023-11-18T00:22:54;11.73;;;7.43;;
7199;SDS011;3641;49.082;8.200;2023-11-18T00:25:20;10.55;;;6.80;;
7199;SDS011;3641;49.082;8.200;2023-11-18T00:27:47;13.98;;;8.30;;
7199;SDS011;3641;49.082;8.200;2023-11-18T00:30:13;12.02;;;8.23;;
7199;SDS011;3641;49.082;8.200;2023-11-18T00:32:40;16.92;;;7.90;;
7199;SDS011;3641;49.082;8.200;2023-11-18T00:35:07;13.80;;;8.38;;
7199;SDS011;3641;49.082;8.200;2023-11-18T00:37:35;13.10;;;7.60;;
7199;SDS011;3641;49.082;8.200;2023-11-18T00:40:03;11.80;;;7.60;;
7199;SDS011;3641;49.082;8.200;2023-11-18T00:42:32;12.70;;;8.38;;
7199;SDS011;3641;49.082;8.200;2023-11-18T00:44:58;17.17;;;8.73;;
7199;SDS011;3641;49.082;8.200;2023-11-18T00:47:25;14.18;;;8.85;;
7199;SDS011;3641;49.082;8.200;2023-11-18T00:49:51;15.70;;;9.65;;
7199;SDS011;3641;49.082;8.200;2023-11-18T00:52:18;16.90;;;9.25;;
7199;SDS011;3641;49.082;8.200;2023-11-18T00:54:45;14.00;;;8.93;;
7199;SDS011;3641;49.082;8.200;2023-11-18T00:57:13;13.05;;;9.13;;
7199;SDS011;3641;49.082;8.200;2023-11-18T00:59:41;16.92;;;10.43;;
7199;SDS011;3641;49.082;8.200;2023-11-18T01:02:09;17.27;;;10.10;;
7199;SDS011;3641;49.082;8.200;2023-11-18T01:04:35;16.63;;;10.02;;
7199;SDS011;3641;49.082;8.200;2023-11-18T01:07:01;17.77;;;9.90;;
7199;SDS011;3641;49.082;8.200;2023-11-18T01:09:28;19.20;;;8.73;;
7199;SDS011;3641;49.082;8.200;2023-11-18T01:12:01;14.88;;;9.18;;
7199;SDS011;3641;49.082;8.200;2023-11-18T01:14:29;13.00;;;9.05;;
7199;SDS011;3641;49.082;8.200;2023-11-18T01:16:56;14.95;;;9.50;;
7199;SDS011;3641;49.082;8.200;2023-11-18T01:19:22;16.13;;;9.57;;
7199;SDS011;3641;49.082;8.200;2023-11-18T01:21:48;15.80;;;10.10;;
7199;SDS011;3641;49.082;8.200;2023-11-18T01:24:18;18.55;;;10.85;;
7199;SDS011;3641;49.082;8.200;2023-11-18T01:26:45;18.13;;;11.25;;
7199;SDS011;3641;49.082;8.200;2023-11-18T01:29:11;15.85;;;10.43;;
7199;SDS011;3641;49.082;8.200;2023-11-18T01:31:39;20.27;;;11.57;;
7199;SDS011;3641;49.082;8.200;2023-11-18T01:34:06;16.88;;;11.65;;
7199;SDS011;3641;49.082;8.200;2023-11-18T01:36:33;17.35;;;10.90;;
7199;SDS011;3641;49.082;8.200;2023-11-18T01:39:00;20.33;;;11.55;;
7199;SDS011;3641;49.082;8.200;2023-11-18T01:41:26;17.27;;;11.43;;
7199;SDS011;3641;49.082;8.200;2023-11-18T01:43:57;16.95;;;11.27;;
7199;SDS011;3641;49.082;8.200;2023-11-18T01:46:23;16.38;;;11.63;;
7199;SDS011;3641;49.082;8.200;2023-11-18T01:48:52;17.40;;;10.85;;
7199;SDS011;3641;49.082;8.200;2023-11-18T01:51:18;20.38;;;11.50;;
7199;SDS011;3641;49.082;8.200;2023-11-18T01:53:46;20.02;;;11.63;;
7199;SDS011;3641;49.082;8.200;2023-11-18T01:56:13;19.80;;;11.50;;
7199;SDS011;3641;49.082;8.200;2023-11-18T01:58:40;17.75;;;11.52;;
7199;SDS011;3641;49.082;8.200;2023-11-18T02:01:06;18.75;;;12.32;;
7199;SDS011;3641;49.082;8.200;2023-11-18T02:03:35;19.20;;;12.93;;
7199;SDS011;3641;49.082;8.200;2023-11-18T02:06:04;19.35;;;12.43;;
7199;SDS011;3641;49.082;8.200;2023-11-18T02:08:34;22.50;;;13.82;;
7199;SDS011;3641;49.082;8.200;2023-11-18T02:11:01;22.83;;;13.23;;
7199;SDS011;3641;49.082;8.200;2023-11-18T02:13:37;24.48;;;15.65;;
7199;SDS011;3641;49.082;8.200;2023-11-18T02:16:06;22.00;;;14.88;;
7199;SDS011;3641;49.082;8.200;2023-11-18T02:18:34;21.77;;;14.30;;
7199;SDS011;3641;49.082;8.200;2023-11-18T02:21:06;26.73;;;15.50;;
7199;SDS011;3641;49.082;8.200;2023-11-18T02:23:33;24.90;;;14.23;;
7199;SDS011;3641;49.082;8.200;2023-11-18T02:26:02;22.77;;;14.50;;
7199;SDS011;3641;49.082;8.200;2023-11-18T02:28:28;22.42;;;13.70;;
7199;SDS011;3641;49.082;8.200;2023-11-18T02:30:56;22.25;;;13.90;;
7199;SDS011;3641;49.082;8.200;2023-11-18T02:33:27;22.98;;;13.68;;
7199;SDS011;3641;49.082;8.200;2023-11-18T02:35:59;21.75;;;13.30;;
7199;SDS011;3641;49.082;8.200;2023-11-18T02:38:31;24.88;;;15.15;;
7199;SDS011;3641;49.082;8.200;2023-11-18T02:41:05;26.08;;;14.23;;
7199;SDS011;3641;49.082;8.200;2023-11-18T02:43:35;26.50;;;14.52;;
7199;SDS011;3641;49.082;8.200;2023-11-18T02:46:05;25.38;;;15.45;;
7199;SDS011;3641;49.082;8.200;2023-11-18T02:48:32;26.05;;;15.57;;
7199;SDS011;3641;49.082;8.200;2023-11-18T02:51:01;25.20;;;15.50;;
7199;SDS011;3641;49.082;8.200;2023-11-18T02:53:27;26.50;;;16.73;;
7199;SDS011;3641;49.082;8.200;2023-11-18T02:55:54;27.55;;;16.33;;
7199;SDS011;3641;49.082;8.200;2023-11-18T02:58:28;26.50;;;15.32;;
7199;SDS011;3641;49.082;8.200;2023-11-18T03:00:55;22.02;;;14.30;;
7199;SDS011;3641;49.082;8.200;2023-11-18T03:03:22;23.50;;;14.60;;
7199;SDS011;3641;49.082;8.200;2023-11-18T03:05:48;23.05;;;14.07;;
7199;SDS011;3641;49.082;8.200;2023-11-18T03:08:15;22.85;;;14.23;;
7199;SDS011;3641;49.082;8.200;2023-11-18T03:10:41;22.15;;;13.88;;
7199;SDS011;3641;49.082;8.200;2023-11-18T03:13:09;21.52;;;13.55;;
7199;SDS011;3641;49.082;8.200;2023-11-18T03:15:38;26.20;;;14.60;;
7199;SDS011;3641;49.082;8.200;2023-11-18T03:18:05;22.65;;;14.13;;
7199;SDS011;3641;49.082;8.200;2023-11-18T03:20:33;25.02;;;14.70;;
7199;SDS011;3641;49.082;8.200;2023-11-18T03:23:00;21.30;;;13.88;;
7199;SDS011;3641;49.082;8.200;2023-11-18T03:25:26;23.92;;;15.10;;
7199;SDS011;3641;49.082;8.200;2023-11-18T03:27:53;24.10;;;15.38;;
7199;SDS011;3641;49.082;8.200;2023-11-18T03:30:19;21.15;;;13.93;;
7199;SDS011;3641;49.082;8.200;2023-11-18T03:32:48;33.40;;;16.92;;
7199;SDS011;3641;49.082;8.200;2023-11-18T03:35:14;33.95;;;16.48;;
7199;SDS011;3641;49.082;8.200;2023-11-18T03:37:41;27.40;;;16.23;;
7199;SDS011;3641;49.082;8.200;2023-11-18T03:40:08;35.45;;;17.23;;
7199;SDS011;3641;49.082;8.200;2023-11-18T03:42:36;35.80;;;17.63;;
7199;SDS011;3641;49.082;8.200;2023-11-18T03:45:03;36.65;;;17.77;;
7199;SDS011;3641;49.082;8.200;2023-11-18T03:47:30;28.73;;;17.15;;
7199;SDS011;3641;49.082;8.200;2023-11-18T03:49:58;39.90;;;19.20;;
7199;SDS011;3641;49.082;8.200;2023-11-18T03:52:24;42.63;;;17.45;;
7199;SDS011;3641;49.082;8.200;2023-11-18T03:54:52;46.20;;;17.95;;
7199;SDS011;3641;49.082;8.200;2023-11-18T03:57:20;42.03;;;17.70;;
7199;SDS011;3641;49.082;8.200;2023-11-18T03:59:46;40.35;;;19.00;;
7199;SDS011;3641;49.082;8.200;2023-11-18T04:02:12;44.08;;;18.00;;
7199;SDS011;3641;49.082;8.200;2023-11-18T04:04:39;42.33;;;18.98;;
7199;SDS011;3641;49.082;8.200;2023-11-18T04:07:07;38.22;;;18.10;;
7199;SDS011;3641;49.082;8.200;2023-11-18T04:09:33;45.28;;;17.45;;
7199;SDS011;3641;49.082;8.200;2023-11-18T04:11:59;40.25;;;18.83;;
7199;SDS011;3641;49.082;8.200;2023-11-18T04:14:26;40.40;;;18.25;;
7199;SDS011;3641;49.082;8.200;2023-11-18T04:16:53;49.22;;;18.30;;
7199;SDS011;3641;49.082;8.200;2023-11-18T04:19:20;54.67;;;15.52;;
7199;SDS011;3641;49.082;8.200;2023-11-18T04:21:47;95.63;;;18.13;;
7199;SDS011;3641;49.082;8.200;2023-11-18T04:24:15;40.05;;;16.92;;
7199;SDS011;3641;49.082;8.200;2023-11-18T04:26:42;72.57;;;16.42;;
7199;SDS011;3641;49.082;8.200;2023-11-18T04:29:08;79.07;;;16.23;;
7199;SDS011;3641;49.082;8.200;2023-11-18T04:31:35;33.35;;;15.95;;
7199;SDS011;3641;49.082;8.200;2023-11-18T04:34:02;41.80;;;17.42;;
7199;SDS011;3641;49.082;8.200;2023-11-18T04:36:29;36.38;;;16.42;;
7199;SDS011;3641;49.082;8.200;2023-11-18T04:38:56;35.63;;;16.25;;
7199;SDS011;3641;49.082;8.200;2023-11-18T04:41:24;34.92;;;16.70;;
7199;SDS011;3641;49.082;8.200;2023-11-18T04:43:53;36.35;;;16.42;;
7199;SDS011;3641;49.082;8.200;2023-11-18T04:46:20;33.38;;;15.35;;
7199;SDS011;3641;49.082;8.200;2023-11-18T04:48:47;37.00;;;16.73;;
7199;SDS011;3641;49.082;8.200;2023-11-18T04:51:13;35.20;;;16.45;;
7199;SDS011;3641;49.082;8.200;2023-11-18T04:53:39;37.80;;;17.92;;
7199;SDS011;3641;49.082;8.200;2023-11-18T04:56:07;34.63;;;16.23;;
7199;SDS011;3641;49.082;8.200;2023-11-18T04:58:37;37.38;;;16.67;;
7199;SDS011;3641;49.082;8.200;2023-11-18T05:01:04;30.85;;;15.30;;
7199;SDS011;3641;49.082;8.200;2023-11-18T05:03:30;36.13;;;16.52;;
7199;SDS011;3641;49.082;8.200;2023-11-18T05:05:57;33.38;;;15.60;;
7199;SDS011;3641;49.082;8.200;2023-11-18T05:08:24;33.90;;;16.02;;
7199;SDS011;3641;49.082;8.200;2023-11-18T05:10:50;31.15;;;14.35;;
7199;SDS011;3641;49.082;8.200;2023-11-18T05:13:17;34.20;;;16.02;;
7199;SDS011;3641;49.082;8.200;2023-11-18T05:15:46;32.47;;;15.00;;
7199;SDS011;3641;49.082;8.200;2023-11-18T05:18:13;32.67;;;15.55;;
7199;SDS011;3641;49.082;8.200;2023-11-18T05:20:40;35.25;;;14.98;;
7199;SDS011;3641;49.082;8.200;2023-11-18T05:23:07;32.38;;;14.60;;
7199;SDS011;3641;49.082;8.200;2023-11-18T05:25:35;32.83;;;15.30;;
7199;SDS011;3641;49.082;8.200;2023-11-18T05:28:01;32.90;;;15.90;;
7199;SDS011;3641;49.082;8.200;2023-11-18T05:30:29;35.78;;;15.15;;
7199;SDS011;3641;49.082;8.200;2023-11-18T05:32:57;37.20;;;17.17;;
7199;SDS011;3641;49.082;8.200;2023-11-18T05:35:23;33.58;;;15.40;;
7199;SDS011;3641;49.082;8.200;2023-11-18T05:37:53;34.03;;;16.02;;
7199;SDS011;3641;49.082;8.200;2023-11-18T05:40:19;30.30;;;15.82;;
7199;SDS011;3641;49.082;8.200;2023-11-18T05:42:46;29.58;;;15.60;;
7199;SDS011;3641;49.082;8.200;2023-11-18T05:45:16;30.98;;;15.80;;
7199;SDS011;3641;49.082;8.200;2023-11-18T05:47:52;35.85;;;15.68;;
7199;SDS011;3641;49.082;8.200;2023-11-18T05:50:20;35.70;;;16.65;;
7199;SDS011;3641;49.082;8.200;2023-11-18T05:52:47;36.00;;;16.83;;
7199;SDS011;3641;49.082;8.200;2023-11-18T05:55:13;34.47;;;16.55;;
7199;SDS011;3641;49.082;8.200;2023-11-18T05:57:41;31.33;;;15.27;;
7199;SDS011;3641;49.082;8.200;2023-11-18T06:00:11;30.80;;;15.52;;
7199;SDS011;3641;49.082;8.200;2023-11-18T06:02:40;32.47;;;15.00;;
7199;SDS011;3641;49.082;8.200;2023-11-18T06:05:07;33.85;;;15.25;;
7199;SDS011;3641;49.082;8.200;2023-11-18T06:07:35;31.15;;;15.18;;
7199;SDS011;3641;49.082;8.200;2023-11-18T06:10:02;33.58;;;15.10;;
7199;SDS011;3641;49.082;8.200;2023-11-18T06:12:30;29.25;;;15.38;;
7199;SDS011;3641;49.082;8.200;2023-11-18T06:14:57;27.55;;;14.90;;
7199;SDS011;3641;49.082;8.200;2023-11-18T06:17:24;30.95;;;14.07;;
7199;SDS011;3641;49.082;8.200;2023-11-18T06:19:53;26.75;;;14.30;;
7199;SDS011;3641;49.082;8.200;2023-11-18T06:22:19;29.20;;;14.85;;
7199;SDS011;3641;49.082;8.200;2023-11-18T06:24:47;29.52;;;14.48;;
7199;SDS011;3641;49.082;8.200;2023-11-18T06:27:13;31.55;;;15.32;;
7199;SDS011;3641;49.082;8.200;2023-11-18T06:29:40;32.65;;;14.77;;
7199;SDS011;3641;49.082;8.200;2023-11-18T06:32:07;27.33;;;14.07;;
7199;SDS011;3641;49.082;8.200;2023-11-18T06:34:33;27.15;;;15.23;;
7199;SDS011;3641;49.082;8.200;2023-11-18T06:37:00;29.65;;;14.98;;
7199;SDS011;3641;49.082;8.200;2023-11-18T06:39:26;29.13;;;14.68;;
7199;SDS011;3641;49.082;8.200;2023-11-18T06:41:55;29.52;;;14.23;;
7199;SDS011;3641;49.082;8.200;2023-11-18T06:44:23;26.95;;;14.35;;
7199;SDS011;3641;49.082;8.200;2023-11-18T06:46:50;28.30;;;14.70;;
7199;SDS011;3641;49.082;8.200;2023-11-18T06:49:17;32.15;;;16.15;;
7199;SDS011;3641;49.082;8.200;2023-11-18T06:51:44;34.67;;;17.90;;
7199;SDS011;3641;49.082;8.200;2023-11-18T06:54:11;29.55;;;16.83;;
7199;SDS011;3641;49.082;8.200;2023-11-18T06:56:38;30.00;;;17.55;;
7199;SDS011;3641;49.082;8.200;2023-11-18T06:59:09;27.45;;;15.45;;
7199;SDS011;3641;49.082;8.200;2023-11-18T07:01:37;26.10;;;15.30;;
7199;SDS011;3641;49.082;8.200;2023-11-18T07:04:07;25.15;;;15.80;;
7199;SDS011;3641;49.082;8.200;2023-11-18T07:06:34;35.05;;;15.82;;
7199;SDS011;3641;49.082;8.200;2023-11-18T07:09:03;29.90;;;16.70;;
7199;SDS011;3641;49.082;8.200;2023-11-18T07:11:37;30.50;;;16.23;;
7199;SDS011;3641;49.082;8.200;2023-11-18T07:14:03;29.25;;;15.60;;
7199;SDS011;3641;49.082;8.200;2023-11-18T07:16:31;26.38;;;15.73;;
7199;SDS011;3641;49.082;8.200;2023-11-18T07:18:58;26.70;;;16.48;;
7199;SDS011;3641;49.082;8.200;2023-11-18T07:21:24;28.55;;;16.10;;
7199;SDS011;3641;49.082;8.200;2023-11-18T07:23:50;27.38;;;15.73;;
7199;SDS011;3641;49.082;8.200;2023-11-18T07:26:17;27.73;;;16.05;;
7199;SDS011;3641;49.082;8.200;2023-11-18T07:28:43;30.88;;;16.92;;
7199;SDS011;3641;49.082;8.200;2023-11-18T07:31:10;30.98;;;17.58;;
7199;SDS011;3641;49.082;8.200;2023-11-18T07:33:38;27.60;;;16.85;;
7199;SDS011;3641;49.082;8.200;2023-11-18T07:36:05;26.85;;;17.15;;
7199;SDS011;3641;49.082;8.200;2023-11-18T07:38:36;32.58;;;17.77;;
7199;SDS011;3641;49.082;8.200;2023-11-18T07:41:02;27.13;;;16.42;;
7199;SDS011;3641;49.082;8.200;2023-11-18T07:43:29;29.52;;;17.95;;
7199;SDS011;3641;49.082;8.200;2023-11-18T07:45:55;29.88;;;16.88;;
7199;SDS011;3641;49.082;8.200;2023-11-18T07:48:22;31.17;;;17.80;;
7199;SDS011;3641;49.082;8.200;2023-11-18T07:50:49;28.92;;;17.60;;
7199;SDS011;3641;49.082;8.200;2023-11-18T07:53:16;29.70;;;18.25;;
7199;SDS011;3641;49.082;8.200;2023-11-18T07:55:42;30.10;;;17.23;;
7199;SDS011;3641;49.082;8.200;2023-11-18T07:58:09;29.20;;;17.85;;
7199;SDS011;3641;49.082;8.200;2023-11-18T08:00:37;30.10;;;17.58;;
7199;SDS011;3641;49.082;8.200;2023-11-18T08:03:04;33.15;;;18.45;;
7199;SDS011;3641;49.082;8.200;2023-11-18T08:05:32;27.77;;;16.85;;
7199;SDS011;3641;49.082;8.200;2023-11-18T08:08:00;27.83;;;16.38;;
7199;SDS011;3641;49.082;8.200;2023-11-18T08:10:26;29.20;;;16.80;;
7199;SDS011;3641;49.082;8.200;2023-11-18T08:12:53;28.00;;;16.77;;
7199;SDS011;3641;49.082;8.200;2023-11-18T08:15:20;28.08;;;15.45;;
7199;SDS011;3641;49.082;8.200;2023-11-18T08:17:47;30.15;;;16.27;;
7199;SDS011;3641;49.082;8.200;2023-11-18T08:20:14;29.00;;;16.40;;
7199;SDS011;3641;49.082;8.200;2023-11-18T08:22:40;27.20;;;16.83;;
7199;SDS011;3641;49.082;8.200;2023-11-18T08:25:10;27.83;;;16.15;;
7199;SDS011;3641;49.082;8.200;2023-11-18T08:27:38;25.65;;;15.38;;
7199;SDS011;3641;49.082;8.200;2023-11-18T08:30:05;27.27;;;16.15;;
7199;SDS011;3641;49.082;8.200;2023-11-18T08:32:36;26.60;;;15.27;;
7199;SDS011;3641;49.082;8.200;2023-11-18T08:35:03;27.95;;;15.70;;
7199;SDS011;3641;49.082;8.200;2023-11-18T08:37:31;27.60;;;16.08;;
7199;SDS011;3641;49.082;8.200;2023-11-18T08:39:58;27.30;;;15.80;;
7199;SDS011;3641;49.082;8.200;2023-11-18T08:42:27;29.02;;;16.45;;
7199;SDS011;3641;49.082;8.200;2023-11-18T08:44:54;29.30;;;15.93;;
7199;SDS011;3641;49.082;8.200;2023-11-18T08:47:21;24.48;;;14.75;;
7199;SDS011;3641;49.082;8.200;2023-11-18T08:49:48;26.00;;;14.32;;
7199;SDS011;3641;49.082;8.200;2023-11-18T08:52:14;23.17;;;13.77;;
7199;SDS011;3641;49.082;8.200;2023-11-18T08:54:42;21.85;;;14.23;;
7199;SDS011;3641;49.082;8.200;2023-11-18T08:57:31;26.38;;;14.70;;
7199;SDS011;3641;49.082;8.200;2023-11-18T09:00:13;24.88;;;15.35;;
7199;SDS011;3641;49.082;8.200;2023-11-18T09:03:01;23.90;;;13.98;;
7199;SDS011;3641;49.082;8.200;2023-11-18T09:05:30;25.60;;;15.48;;
7199;SDS011;3641;49.082;8.200;2023-11-18T09:07:57;25.65;;;15.50;;
7199;SDS011;3641;49.082;8.200;2023-11-18T09:10:25;24.85;;;14.77;;
7199;SDS011;3641;49.082;8.200;2023-11-18T09:12:54;24.85;;;14.75;;
7199;SDS011;3641;49.082;8.200;2023-11-18T09:15:20;24.42;;;14.02;;
7199;SDS011;3641;49.082;8.200;2023-11-18T09:17:47;26.58;;;14.38;;
7199;SDS011;3641;49.082;8.200;2023-11-18T09:20:14;27.92;;;15.25;;
7199;SDS011;3641;49.082;8.200;2023-11-18T09:22:43;24.73;;;14.27;;
7199;SDS011;3641;49.082;8.200;2023-11-18T09:25:10;22.75;;;13.70;;
7199;SDS011;3641;49.082;8.200;2023-11-18T09:27:37;21.02;;;13.02;;
7199;SDS011;3641;49.082;8.200;2023-11-18T09:30:06;19.92;;;12.38;;
7199;SDS011;3641;49.082;8.200;2023-11-18T09:32:38;21.80;;;13.10;;
7199;SDS011;3641;49.082;8.200;2023-11-18T09:35:07;25.50;;;13.27;;
7199;SDS011;3641;49.082;8.200;2023-11-18T09:37:34;20.55;;;12.63;;
7199;SDS011;3641;49.082;8.200;2023-11-18T09:40:01;20.33;;;12.15;;
7199;SDS011;3641;49.082;8.200;2023-11-18T09:42:36;19.90;;;11.50;;
7199;SDS011;3641;49.082;8.200;2023-11-18T09:45:04;18.05;;;11.32;;
7199;SDS011;3641;49.082;8.200;2023-11-18T09:47:38;18.30;;;10.90;;
7199;SDS011;3641;49.082;8.200;2023-11-18T09:50:12;20.13;;;11.35;;
7199;SDS011;3641;49.082;8.200;2023-11-18T09:52:47;18.70;;;10.13;;
7199;SDS011;3641;49.082;8.200;2023-11-18T09:55:19;20.08;;;11.63;;
7199;SDS011;3641;49.082;8.200;2023-11-18T09:57:54;17.63;;;10.00;;
7199;SDS011;3641;49.082;8.200;2023-11-18T10:00:27;16.75;;;10.43;;
7199;SDS011;3641;49.082;8.200;2023-11-18T10:02:57;14.35;;;9.30;;
7199;SDS011;3641;49.082;8.200;2023-11-18T10:05:25;14.05;;;8.82;;
7199;SDS011;3641;49.082;8.200;2023-11-18T10:07:53;15.15;;;9.00;;
7199;SDS011;3641;49.082;8.200;2023-11-18T10:10:19;14.75;;;9.00;;
7199;SDS011;3641;49.082;8.200;2023-11-18T10:12:47;15.75;;;8.95;;
7199;SDS011;3641;49.082;8.200;2023-11-18T10:15:17;13.00;;;8.48;;
7199;SDS011;3641;49.082;8.200;2023-11-18T10:17:49;13.93;;;7.50;;
7199;SDS011;3641;49.082;8.200;2023-11-18T10:20:22;12.93;;;7.55;;
7199;SDS011;3641;49.082;8.200;2023-11-18T10:25:35;13.75;;;7.10;;
7199;SDS011;3641;49.082;8.200;2023-11-18T10:28:05;12.80;;;7.47;;
7199;SDS011;3641;49.082;8.200;2023-11-18T10:30:32;12.93;;;7.10;;
7199;SDS011;3641;49.082;8.200;2023-11-18T10:33:09;14.00;;;7.20;;
7199;SDS011;3641;49.082;8.200;2023-11-18T10:35:36;12.80;;;6.95;;
7199;SDS011;3641;49.082;8.200;2023-11-18T10:38:02;13.05;;;7.70;;
7199;SDS011;3641;49.082;8.200;2023-11-18T10:40:31;15.52;;;6.93;;
7199;SDS011;3641;49.082;8.200;2023-11-18T10:43:00;16.13;;;6.78;;
7199;SDS011;3641;49.082;8.200;2023-11-18T10:45:26;10.90;;;5.82;;
7199;SDS011;3641;49.082;8.200;2023-11-18T10:47:53;10.00;;;5.70;;
7199;SDS011;3641;49.082;8.200;2023-11-18T10:50:23;9.77;;;5.25;;
7199;SDS011;3641;49.082;8.200;2023-11-18T10:52:56;10.93;;;4.88;;
7199;SDS011;3641;49.082;8.200;2023-11-18T10:55:33;9.98;;;5.63;;
7199;SDS011;3641;49.082;8.200;2023-11-18T10:58:01;10.15;;;5.40;;
7199;SDS011;3641;49.082;8.200;2023-11-18T11:00:29;10.90;;;5.35;;
7199;SDS011;3641;49.082;8.200;2023-11-18T11:03:11;8.55;;;4.78;;
7199;SDS011;3641;49.082;8.200;2023-11-18T11:05:40;8.52;;;4.50;;
7199;SDS011;3641;49.082;8.200;2023-11-18T11:08:08;14.40;;;4.65;;
7199;SDS011;3641;49.082;8.200;2023-11-18T11:10:38;15.30;;;6.32;;
7199;SDS011;3641;49.082;8.200;2023-11-18T11:13:07;13.25;;;6.50;;
7199;SDS011;3641;49.082;8.200;2023-11-18T11:15:36;9.70;;;4.95;;
7199;SDS011;3641;49.082;8.200;2023-11-18T11:18:08;13.88;;;5.10;;
7199;SDS011;3641;49.082;8.200;2023-11-18T11:20:45;10.88;;;5.18;;
7199;SDS011;3641;49.082;8.200;2023-11-18T11:23:18;10.30;;;5.20;;
7199;SDS011;3641;49.082;8.200;2023-11-18T11:25:50;11.93;;;4.47;;
7199;SDS011;3641;49.082;8.200;2023-11-18T11:28:31;7.50;;;3.95;;
7199;SDS011;3641;49.082;8.200;2023-11-18T11:31:08;6.65;;;3.40;;
7199;SDS011;3641;49.082;8.200;2023-11-18T11:33:43;10.82;;;3.53;;
7199;SDS011;3641;49.082;8.200;2023-11-18T11:36:17;10.50;;;4.75;;
7199;SDS011;3641;49.082;8.200;2023-11-18T11:38:47;6.75;;;3.90;;
7199;SDS011;3641;49.082;8.200;2023-11-18T11:41:16;6.45;;;4.05;;
7199;SDS011;3641;49.082;8.200;2023-11-18T11:43:51;9.27;;;3.67;;
7199;SDS011;3641;49.082;8.200;2023-11-18T11:46:20;6.85;;;3.70;;
7199;SDS011;3641;49.082;8.200;2023-11-18T11:48:48;7.50;;;4.05;;
7199;SDS011;3641;49.082;8.200;2023-11-18T11:51:22;5.65;;;3.53;;
7199;SDS011;3641;49.082;8.200;2023-11-18T11:53:55;8.88;;;4.35;;
7199;SDS011;3641;49.082;8.200;2023-11-18T11:56:39;10.23;;;4.15;;
7199;SDS011;3641;49.082;8.200;2023-11-18T11:59:06;7.55;;;4.10;;
7199;SDS011;3641;49.082;8.200;2023-11-18T12:01:36;8.60;;;4.20;;
7199;SDS011;3641;49.082;8.200;2023-11-18T12:04:04;7.00;;;3.88;;
7199;SDS011;3641;49.082;8.200;2023-11-18T12:06:34;7.65;;;3.75;;
7199;SDS011;3641;49.082;8.200;2023-11-18T12:09:08;8.95;;;5.13;;
7199;SDS011;3641;49.082;8.200;2023-11-18T12:11:35;6.68;;;3.50;;
7199;SDS011;3641;49.082;8.200;2023-11-18T12:14:05;6.93;;;3.85;;
7199;SDS011;3641;49.082;8.200;2023-11-18T12:17:01;6.68;;;3.85;;
7199;SDS011;3641;49.082;8.200;2023-11-18T12:19:33;9.32;;;4.13;;
7199;SDS011;3641;49.082;8.200;2023-11-18T12:22:11;11.52;;;4.05;;
7199;SDS011;3641;49.082;8.200;2023-11-18T12:24:44;10.98;;;4.25;;
7199;SDS011;3641;49.082;8.200;2023-11-18T12:27:13;8.43;;;3.90;;
7199;SDS011;3641;49.082;8.200;2023-11-18T12:30:00;8.45;;;4.65;;
7199;SDS011;3641;49.082;8.200;2023-11-18T12:35:30;11.63;;;4.00;;
7199;SDS011;3641;49.082;8.200;2023-11-18T12:41:17;7.43;;;4.18;;
7199;SDS011;3641;49.082;8.200;2023-11-18T12:44:02;7.60;;;4.13;;
7199;SDS011;3641;49.082;8.200;2023-11-18T12:46:49;7.63;;;3.88;;
7199;SDS011;3641;49.082;8.200;2023-11-18T12:49:18;12.15;;;4.38;;
7199;SDS011;3641;49.082;8.200;2023-11-18T12:51:48;10.65;;;5.22;;
7199;SDS011;3641;49.082;8.200;2023-11-18T12:54:17;6.38;;;3.50;;
7199;SDS011;3641;49.082;8.200;2023-11-18T12:56:44;8.15;;;4.00;;
7199;SDS011;3641;49.082;8.200;2023-11-18T12:59:13;8.35;;;3.92;;
7199;SDS011;3641;49.082;8.200;2023-11-18T13:01:44;10.15;;;3.97;;
7199;SDS011;3641;49.082;8.200;2023-11-18T13:04:17;6.18;;;3.35;;
7199;SDS011;3641;49.082;8.200;2023-11-18T13:06:45;9.82;;;3.67;;
7199;SDS011;3641;49.082;8.200;2023-11-18T13:09:13;6.47;;;3.20;;
7199;SDS011;3641;49.082;8.200;2023-11-18T13:11:51;6.45;;;3.92;;
7199;SDS011;3641;49.082;8.200;2023-11-18T13:14:21;9.98;;;4.35;;
7199;SDS011;3641;49.082;8.200;2023-11-18T13:16:50;7.30;;;3.75;;
7199;SDS011;3641;49.082;8.200;2023-11-18T13:19:23;8.93;;;3.60;;
7199;SDS011;3641;49.082;8.200;2023-11-18T13:21:49;6.05;;;3.55;;
7199;SDS011;3641;49.082;8.200;2023-11-18T13:24:16;7.43;;;3.58;;
7199;SDS011;3641;49.082;8.200;2023-11-18T13:26:43;6.88;;;3.40;;
7199;SDS011;3641;49.082;8.200;2023-11-18T13:29:10;9.05;;;4.00;;
7199;SDS011;3641;49.082;8.200;2023-11-18T13:31:37;7.88;;;4.13;;
7199;SDS011;3641;49.082;8.200;2023-11-18T13:34:05;9.55;;;4.05;;
7199;SDS011;3641;49.082;8.200;2023-11-18T13:36:32;10.07;;;4.40;;
7199;SDS011;3641;49.082;8.200;2023-11-18T13:38:59;7.43;;;3.92;;
7199;SDS011;3641;49.082;8.200;2023-11-18T13:41:31;5.97;;;3.45;;
7199;SDS011;3641;49.082;8.200;2023-11-18T13:43:58;10.10;;;3.92;;
7199;SDS011;3641;49.082;8.200;2023-11-18T13:46:26;8.80;;;3.70;;
7199;SDS011;3641;49.082;8.200;2023-11-18T13:48:52;8.10;;;3.30;;
7199;SDS011;3641;49.082;8.200;2023-11-18T13:51:19;11.18;;;3.30;;
7199;SDS011;3641;49.082;8.200;2023-11-18T13:53:47;8.25;;;3.42;;
7199;SDS011;3641;49.082;8.200;2023-11-18T13:56:15;7.80;;;3.22;;
7199;SDS011;3641;49.082;8.200;2023-11-18T13:58:45;5.97;;;3.38;;
7199;SDS011;3641;49.082;8.200;2023-11-18T14:01:12;6.47;;;3.58;;
7199;SDS011;3641;49.082;8.200;2023-11-18T14:03:41;10.68;;;3.80;;
7199;SDS011;3641;49.082;8.200;2023-11-18T14:06:09;7.57;;;2.85;;
7199;SDS011;3641;49.082;8.200;2023-11-18T14:08:36;7.38;;;3.28;;
7199;SDS011;3641;49.082;8.200;2023-11-18T14:11:02;10.40;;;4.93;;
7199;SDS011;3641;49.082;8.200;2023-11-18T14:13:30;5.93;;;3.30;;
7199;SDS011;3641;49.082;8.200;2023-11-18T14:15:59;6.57;;;3.35;;
7199;SDS011;3641;49.082;8.200;2023-11-18T14:18:26;9.15;;;3.20;;
7199;SDS011;3641;49.082;8.200;2023-11-18T14:20:54;8.23;;;3.10;;
7199;SDS011;3641;49.082;8.200;2023-11-18T14:23:21;8.50;;;3.30;;
7199;SDS011;3641;49.082;8.200;2023-11-18T14:25:48;7.30;;;2.83;;
7199;SDS011;3641;49.082;8.200;2023-11-18T14:28:15;10.38;;;3.35;;
7199;SDS011;3641;49.082;8.200;2023-11-18T14:30:42;6.85;;;3.15;;
7199;SDS011;3641;49.082;8.200;2023-11-18T14:33:09;10.35;;;3.30;;
7199;SDS011;3641;49.082;8.200;2023-11-18T14:35:35;6.70;;;3.10;;
7199;SDS011;3641;49.082;8.200;2023-11-18T14:38:03;7.70;;;2.95;;
7199;SDS011;3641;49.082;8.200;2023-11-18T14:40:30;8.30;;;2.95;;
7199;SDS011;3641;49.082;8.200;2023-11-18T14:42:57;8.15;;;3.35;;
7199;SDS011;3641;49.082;8.200;2023-11-18T14:45:23;8.38;;;3.83;;
7199;SDS011;3641;49.082;8.200;2023-11-18T14:47:50;6.35;;;2.83;;
7199;SDS011;3641;49.082;8.200;2023-11-18T14:50:18;8.02;;;3.03;;
7199;SDS011;3641;49.082;8.200;2023-11-18T14:52:45;7.68;;;2.88;;
7199;SDS011;3641;49.082;8.200;2023-11-18T14:55:13;8.77;;;4.80;;
7199;SDS011;3641;49.082;8.200;2023-11-18T14:57:42;8.98;;;4.00;;
7199;SDS011;3641;49.082;8.200;2023-11-18T15:00:10;15.23;;;4.95;;
7199;SDS011;3641;49.082;8.200;2023-11-18T15:02:44;12.27;;;5.38;;
7199;SDS011;3641;49.082;8.200;2023-11-18T15:05:12;10.55;;;3.78;;
7199;SDS011;3641;49.082;8.200;2023-11-18T15:07:41;10.23;;;4.07;;
7199;SDS011;3641;49.082;8.200;2023-11-18T15:10:08;7.70;;;3.20;;
7199;SDS011;3641;49.082;8.200;2023-11-18T15:12:36;10.27;;;2.85;;